Adamant, Vermont
Current Conditions -  °F | °C
As of 12:51 PM on Saturday 20 Dec 2014 (Local Time) from KMPV Reporting Station
Clear Clear  
Wind Chill: -6°   Ceiling: Unl
Heat Index: -6°   Visibility: 10mi
Dew Point: -10°   Wind: 0mph
Humidity: 72%   Direction: NA
Pressure: 30.26"   Gusts: NA
Location:  44.33°N, 72.5°W
Report Text: KMPV 201751Z AUTO 00000KT 10SM CLR M06/M10 A3026 RMK AO2 SLP269 T10561100 11056 21150 56020
Loading
Personal Weather Stations






























Interactive Weather Map New forecast layout! Learn more

10-Day Weather Forecast

Advertisements
Track Severe Weather on mobile